createdAt,value
2022-10-17T00:00:52.538Z,101709.22
2022-10-17T00:03:54.338Z,101712.31
2022-10-17T00:06:56.165Z,101706.06
2022-10-17T00:09:57.968Z,101710.44
2022-10-17T00:12:59.781Z,101703.97
2022-10-17T00:16:01.581Z,101723.97
2022-10-17T00:19:04.099Z,101714.84
2022-10-17T00:22:05.897Z,101715.75
2022-10-17T00:25:07.870Z,101726.06
2022-10-17T00:28:10.470Z,101725.50
2022-10-17T00:31:12.270Z,101714.78
2022-10-17T00:34:14.055Z,101717.56
2022-10-17T00:37:15.969Z,101717.50
2022-10-17T00:40:17.916Z,101716.91
2022-10-17T00:43:19.744Z,101727.12
2022-10-17T00:46:22.028Z,101727.38
2022-10-17T00:49:24.406Z,101719.31
2022-10-17T00:52:27.101Z,101732.19
2022-10-17T00:55:31.468Z,101724.72
2022-10-17T00:58:33.252Z,101714.97
2022-10-17T01:01:35.115Z,101720.34
2022-10-17T01:04:37.419Z,101707.44
2022-10-17T01:07:39.611Z,101711.94
2022-10-17T01:10:47.502Z,101718.53
2022-10-17T01:13:53.832Z,101717.47
2022-10-17T01:16:59.318Z,101724.53
2022-10-17T01:20:10.465Z,101717.69
2022-10-17T01:23:24.562Z,101710.50
2022-10-17T01:26:32.451Z,101718.69
2022-10-17T01:29:36.997Z,101721.69
2022-10-17T01:32:55.331Z,101712.81
2022-10-17T01:36:04.782Z,101720.59
2022-10-17T01:39:13.502Z,101703.16
2022-10-17T01:42:17.574Z,101714.97
2022-10-17T01:45:33.159Z,101708.97
2022-10-17T01:48:35.718Z,101719.31
2022-10-17T01:51:42.202Z,101719.09
2022-10-17T01:54:45.777Z,101713.53
2022-10-17T01:57:51.683Z,101719.25
2022-10-17T02:00:53.504Z,101726.06
2022-10-17T02:03:55.318Z,101729.03
2022-10-17T02:06:57.210Z,101726.22
2022-10-17T02:09:58.997Z,101731.53
2022-10-17T02:13:12.168Z,101725.75
2022-10-17T02:16:32.534Z,101720.66
2022-10-17T02:19:40.103Z,101729.91
2022-10-17T02:22:41.844Z,101722.03
2022-10-17T02:25:51.898Z,101723.50
2022-10-17T02:28:59.821Z,101722.34
2022-10-17T02:32:04.054Z,101725.63
2022-10-17T02:35:06.119Z,101738.25
2022-10-17T02:38:08.160Z,101743.09
2022-10-17T02:41:10.640Z,101734.75
2022-10-17T02:44:12.439Z,101740.94
2022-10-17T02:47:22.226Z,101747.41
2022-10-17T02:53:44.697Z,101740.03
2022-10-17T02:56:48.964Z,101748.59
2022-10-17T02:59:50.784Z,101753.31
2022-10-17T03:02:53.197Z,101756.97
2022-10-17T03:05:55.067Z,101758.75
2022-10-17T03:08:56.858Z,101756.25
2022-10-17T03:11:58.688Z,101759.50
2022-10-17T03:15:00.470Z,101756.97
2022-10-17T03:18:02.276Z,101751.25
2022-10-17T03:21:04.135Z,101759.16
2022-10-17T03:24:06.077Z,101769.47
2022-10-17T03:27:07.906Z,101767.75
2022-10-17T03:30:10.019Z,101781.56
2022-10-17T03:33:11.851Z,101779.41
2022-10-17T03:36:14.587Z,101778.12
2022-10-17T03:39:16.407Z,101782.00
2022-10-17T03:42:18.390Z,101790.00
2022-10-17T03:45:20.193Z,101795.94
2022-10-17T03:48:22.015Z,101791.22
2022-10-17T03:51:23.949Z,101797.13
2022-10-17T03:54:25.815Z,101804.19
2022-10-17T03:57:27.936Z,101801.31
2022-10-17T04:00:30.018Z,101802.25
2022-10-17T04:03:31.858Z,101804.41
2022-10-17T04:06:33.630Z,101797.66
2022-10-17T04:09:35.434Z,101810.16
2022-10-17T04:12:37.230Z,101812.72
2022-10-17T04:15:39.058Z,101815.03
2022-10-17T04:18:51.544Z,101812.47
2022-10-17T04:22:02.456Z,101827.03
2022-10-17T04:25:12.934Z,101828.97
2022-10-17T04:28:20.833Z,101833.28
2022-10-17T04:31:37.317Z,101822.03
2022-10-17T04:34:45.396Z,101832.25
2022-10-17T04:37:48.963Z,101830.75
2022-10-17T04:40:57.433Z,101823.81
2022-10-17T04:44:11.257Z,101823.72
2022-10-17T04:47:20.946Z,101833.37
2022-10-17T04:50:47.252Z,101828.09
2022-10-17T04:53:56.493Z,101832.22
2022-10-17T04:57:01.033Z,101837.19
2022-10-17T05:03:21.503Z,101847.34
2022-10-17T05:06:37.774Z,101849.38
2022-10-17T05:10:01.797Z,101855.53
2022-10-17T05:13:20.989Z,101850.09
2022-10-17T05:16:29.814Z,101853.28
2022-10-17T05:19:33.826Z,101864.19
2022-10-17T05:22:39.772Z,101865.59
2022-10-17T05:25:53.570Z,101865.06
2022-10-17T05:29:05.355Z,101871.19
2022-10-17T05:32:15.148Z,101879.94
2022-10-17T05:35:31.159Z,101880.59
2022-10-17T05:38:38.465Z,101885.09
2022-10-17T05:41:40.543Z,101897.97
2022-10-17T05:44:44.495Z,101894.53
2022-10-17T05:47:47.911Z,101886.53
2022-10-17T05:50:56.679Z,101900.00
2022-10-17T05:54:03.491Z,101904.06
2022-10-17T05:57:06.060Z,101905.88
2022-10-17T06:00:10.978Z,101904.06
2022-10-17T06:06:24.794Z,101914.91
2022-10-17T06:09:26.751Z,101919.44
2022-10-17T06:12:28.977Z,101911.91
2022-10-17T06:15:31.011Z,101921.81
2022-10-17T06:18:33.048Z,101923.91
2022-10-17T06:21:37.845Z,101931.81
2022-10-17T06:24:39.770Z,101927.66
2022-10-17T06:27:41.706Z,101919.09
2022-10-17T06:30:44.247Z,101930.78
2022-10-17T06:33:47.516Z,101923.78
2022-10-17T06:36:49.525Z,101948.00
2022-10-17T06:39:51.945Z,101955.94
2022-10-17T06:42:53.980Z,101941.56
2022-10-17T06:49:02.575Z,101955.91
2022-10-17T06:52:04.967Z,101957.75
2022-10-17T06:55:07.535Z,101957.66
2022-10-17T06:58:09.595Z,101958.56
2022-10-17T07:01:13.756Z,101959.84
2022-10-17T07:04:16.274Z,101968.13
2022-10-17T07:07:18.586Z,101974.59
2022-10-17T07:10:20.825Z,101975.44
2022-10-17T07:13:23.057Z,101982.34
2022-10-17T07:16:24.897Z,101980.31
2022-10-17T07:19:30.123Z,101972.69
2022-10-17T07:22:32.255Z,101975.69
2022-10-17T07:25:36.434Z,101970.38
2022-10-17T07:28:42.681Z,101979.00
2022-10-17T07:31:45.874Z,101984.81
2022-10-17T07:34:47.806Z,101984.00
2022-10-17T07:37:50.782Z,101976.16
2022-10-17T07:40:58.756Z,101988.09
2022-10-17T07:44:00.871Z,101997.06
2022-10-17T07:47:02.685Z,101999.13
2022-10-17T07:50:05.458Z,101999.06
2022-10-17T07:53:07.373Z,101997.94
2022-10-17T07:56:11.436Z,101996.44
2022-10-17T07:59:13.302Z,101986.63
2022-10-17T08:02:20.845Z,101995.81
2022-10-17T08:05:22.743Z,101998.53
2022-10-17T08:08:24.728Z,102000.22
2022-10-17T08:11:26.552Z,102009.84
2022-10-17T08:14:28.431Z,102016.59
2022-10-17T08:17:30.232Z,102019.81
2022-10-17T08:20:32.178Z,102014.78
2022-10-17T08:23:34.232Z,102014.22
2022-10-17T08:26:39.243Z,102023.75
2022-10-17T08:29:48.435Z,102016.25
2022-10-17T08:32:50.649Z,102018.31
2022-10-17T08:35:52.449Z,102019.81
2022-10-17T08:38:54.320Z,102022.87
2022-10-17T08:42:05.306Z,102014.53
2022-10-17T08:45:16.605Z,102011.38
2022-10-17T08:48:19.236Z,102003.25
2022-10-17T08:51:28.696Z,102007.09
2022-10-17T08:54:35.372Z,102002.00
2022-10-17T08:57:37.229Z,102004.72
2022-10-17T09:00:39.165Z,102008.12
2022-10-17T09:03:59.634Z,102005.06
2022-10-17T09:07:20.195Z,102008.47
2022-10-17T09:10:31.443Z,102015.00
2022-10-17T09:13:48.674Z,102007.00
2022-10-17T09:16:59.967Z,102008.72
2022-10-17T09:20:12.021Z,102002.78
2022-10-17T09:23:16.621Z,101999.59
2022-10-17T09:26:18.666Z,102002.41
2022-10-17T09:29:22.143Z,102003.88
2022-10-17T09:32:24.566Z,101998.84
2022-10-17T09:35:27.652Z,102001.06
2022-10-17T09:38:41.619Z,101992.56
2022-10-17T09:41:47.265Z,102002.16
2022-10-17T09:44:51.856Z,101996.09
2022-10-17T09:47:58.363Z,102005.72
2022-10-17T09:51:14.984Z,101992.19
2022-10-17T09:54:26.264Z,101991.72
2022-10-17T09:57:28.239Z,101990.13
2022-10-17T10:00:30.170Z,101990.06
2022-10-17T10:03:32.125Z,101989.13
2022-10-17T10:06:34.085Z,101981.47
2022-10-17T10:09:39.394Z,101976.44
2022-10-17T10:12:42.255Z,101978.09
2022-10-17T10:15:48.018Z,101978.81
2022-10-17T10:18:51.179Z,101984.94
2022-10-17T10:22:00.457Z,101983.44
2022-10-17T10:25:09.076Z,101979.13
2022-10-17T10:28:11.716Z,101979.59
2022-10-17T10:31:13.593Z,101978.19
2022-10-17T10:34:16.677Z,101966.56
2022-10-17T10:37:22.271Z,101963.09
2022-10-17T10:40:28.934Z,101973.09
2022-10-17T10:43:33.595Z,101971.56
2022-10-17T10:46:35.801Z,101970.44
2022-10-17T10:49:40.664Z,101964.44
2022-10-17T10:52:43.841Z,101961.06
2022-10-17T10:55:52.984Z,101962.59
2022-10-17T10:59:00.596Z,101960.78
2022-10-17T11:02:05.409Z,101959.72
2022-10-17T11:05:13.215Z,101950.16
2022-10-17T11:08:15.161Z,101948.97
2022-10-17T11:11:23.827Z,101960.84
2022-10-17T11:14:32.135Z,101958.59
2022-10-17T11:17:42.315Z,101952.47
2022-10-17T11:20:44.458Z,101949.00
2022-10-17T11:23:53.799Z,101940.50
2022-10-17T11:26:59.247Z,101940.72
2022-10-17T11:30:01.288Z,101921.37
2022-10-17T11:33:03.384Z,101939.44
2022-10-17T11:36:06.500Z,101926.53
2022-10-17T11:39:12.223Z,101930.69
2022-10-17T11:42:15.833Z,101925.72
2022-10-17T11:45:18.707Z,101921.63
2022-10-17T11:48:25.434Z,101915.72
2022-10-17T11:54:50.919Z,101914.38
2022-10-17T11:58:13.037Z,101925.88
2022-10-17T12:01:16.945Z,101923.88
2022-10-17T12:04:31.261Z,101915.06
2022-10-17T12:10:45.078Z,101917.59
2022-10-17T12:13:47.773Z,101910.09
2022-10-17T12:16:49.672Z,101906.25
2022-10-17T12:19:51.945Z,101901.56
2022-10-17T12:23:03.222Z,101896.84
2022-10-17T12:26:06.270Z,101898.25
2022-10-17T12:29:16.961Z,101887.19
2022-10-17T12:32:18.803Z,101894.09
2022-10-17T12:35:21.220Z,101881.69
2022-10-17T12:38:24.362Z,101883.72
2022-10-17T12:41:38.208Z,101877.87
2022-10-17T12:44:40.059Z,101873.63
2022-10-17T12:47:41.944Z,101866.69
2022-10-17T12:51:34.251Z,101871.78
2022-10-17T12:54:27.116Z,101872.59
2022-10-17T12:57:33.790Z,101869.47
2022-10-17T13:00:36.543Z,101865.97
2022-10-17T13:03:41.919Z,101870.09
2022-10-17T13:06:45.310Z,101865.75
2022-10-17T13:09:47.301Z,101856.00
2022-10-17T13:12:49.431Z,101856.56
2022-10-17T13:15:52.186Z,101862.56
2022-10-17T13:18:54.274Z,101852.22
2022-10-17T13:22:00.956Z,101847.41
2022-10-17T13:25:10.172Z,101845.53
2022-10-17T13:28:13.259Z,101838.31
2022-10-17T13:31:28.848Z,101839.91
2022-10-17T13:34:31.803Z,101848.06
2022-10-17T13:37:34.397Z,101840.81
2022-10-17T13:40:50.783Z,101837.59
2022-10-17T13:43:53.173Z,101844.81
2022-10-17T13:46:55.186Z,101832.38
2022-10-17T13:49:57.069Z,101834.19
2022-10-17T13:53:17.559Z,101845.28
2022-10-17T13:56:28.424Z,101831.06
2022-10-17T13:59:33.304Z,101847.31
2022-10-17T14:02:35.367Z,101842.09
2022-10-17T14:05:43.662Z,101845.00
2022-10-17T14:08:48.633Z,101849.03
2022-10-17T14:12:16.693Z,101839.59
2022-10-17T14:15:18.523Z,101835.34
2022-10-17T14:18:35.044Z,101832.78
2022-10-17T14:21:44.210Z,101834.25
2022-10-17T14:24:46.911Z,101838.28
2022-10-17T14:28:04.316Z,101837.28
2022-10-17T14:31:14.472Z,101833.00
2022-10-17T14:34:20.327Z,101830.66
2022-10-17T14:37:31.725Z,101844.72
2022-10-17T14:40:34.007Z,101839.31
2022-10-17T14:43:36.015Z,101836.44
2022-10-17T14:46:38.999Z,101828.94
2022-10-17T14:49:41.038Z,101836.87
2022-10-17T14:52:49.563Z,101829.69
2022-10-17T14:55:58.615Z,101832.03
2022-10-17T14:59:02.827Z,101835.09
2022-10-17T15:02:04.711Z,101830.94
2022-10-17T15:05:10.762Z,101824.97
2022-10-17T15:08:16.107Z,101832.03
2022-10-17T15:11:20.512Z,101831.66
2022-10-17T15:14:22.531Z,101826.44
2022-10-17T15:17:25.662Z,101839.97
2022-10-17T15:20:29.534Z,101836.19
2022-10-17T15:23:31.392Z,101841.47
2022-10-17T15:26:33.829Z,101836.63
2022-10-17T15:29:36.314Z,101839.09
2022-10-17T15:32:38.247Z,101848.59
2022-10-17T15:35:40.101Z,101847.16
2022-10-17T15:38:41.976Z,101841.22
2022-10-17T15:41:44.231Z,101850.97
2022-10-17T15:44:49.503Z,101849.72
2022-10-17T15:47:55.366Z,101855.62
2022-10-17T15:50:57.308Z,101846.16
2022-10-17T15:54:01.688Z,101855.38
2022-10-17T15:57:04.089Z,101864.81
2022-10-17T16:00:07.134Z,101868.69
2022-10-17T16:03:09.208Z,101870.63
2022-10-17T16:06:13.558Z,101864.66
2022-10-17T16:09:16.299Z,101876.28
2022-10-17T16:12:19.490Z,101877.63
2022-10-17T16:15:23.046Z,101880.09
2022-10-17T16:18:24.880Z,101883.00
2022-10-17T16:21:27.938Z,101885.38
2022-10-17T16:24:29.817Z,101880.87
2022-10-17T16:27:31.658Z,101887.25
2022-10-17T16:30:33.750Z,101880.06
2022-10-17T16:33:36.090Z,101882.91
2022-10-17T16:36:38.169Z,101879.84
2022-10-17T16:39:40.071Z,101884.31
2022-10-17T16:42:42.030Z,101880.38
2022-10-17T16:45:43.883Z,101885.75
2022-10-17T16:48:46.149Z,101894.94
2022-10-17T16:51:48.029Z,101897.28
2022-10-17T16:54:50.824Z,101905.22
2022-10-17T16:57:52.716Z,101902.53
2022-10-17T17:00:54.725Z,101907.56
2022-10-17T17:03:56.838Z,101901.13
2022-10-17T17:06:58.805Z,101912.88
2022-10-17T17:10:00.649Z,101907.53
2022-10-17T17:13:03.299Z,101911.59
2022-10-17T17:16:06.095Z,101910.03
2022-10-17T17:19:08.692Z,101910.91
2022-10-17T17:22:10.489Z,101915.03
2022-10-17T17:25:12.466Z,101919.84
2022-10-17T17:28:14.254Z,101914.50
2022-10-17T17:31:17.329Z,101917.72
2022-10-17T17:34:19.157Z,101924.03
2022-10-17T17:37:21.016Z,101917.78
2022-10-17T17:40:22.853Z,101914.84
2022-10-17T17:43:25.029Z,101921.97
2022-10-17T17:46:27.020Z,101927.06
2022-10-17T17:49:28.829Z,101920.78
2022-10-17T17:52:31.023Z,101914.59
2022-10-17T17:55:33.553Z,101912.03
2022-10-17T17:58:35.661Z,101916.00
2022-10-17T18:01:39.110Z,101912.72
2022-10-17T18:04:41.248Z,101923.72
2022-10-17T18:07:43.179Z,101918.03
2022-10-17T18:10:48.959Z,101923.66
2022-10-17T18:13:58.144Z,101926.72
2022-10-17T18:17:00.128Z,101921.84
2022-10-17T18:20:02.892Z,101917.56
2022-10-17T18:23:04.796Z,101924.78
2022-10-17T18:26:07.022Z,101934.97
2022-10-17T18:29:09.289Z,101925.25
2022-10-17T18:32:11.345Z,101922.63
2022-10-17T18:35:13.274Z,101919.97
2022-10-17T18:38:15.154Z,101923.25
2022-10-17T18:41:18.033Z,101921.41
2022-10-17T18:44:19.823Z,101922.50
2022-10-17T18:47:21.720Z,101919.44
2022-10-17T18:50:24.283Z,101928.28
2022-10-17T18:53:26.136Z,101925.78
2022-10-17T18:56:28.022Z,101930.62
2022-10-17T18:59:29.800Z,101919.84
2022-10-17T19:02:34.384Z,101920.16
2022-10-17T19:05:39.837Z,101921.94
2022-10-17T19:08:41.926Z,101924.78
2022-10-17T19:11:43.809Z,101918.31
2022-10-17T19:14:45.612Z,101923.44
2022-10-17T19:17:47.460Z,101915.41
2022-10-17T19:20:50.980Z,101922.81
2022-10-17T19:23:54.946Z,101925.75
2022-10-17T19:26:57.953Z,101927.97
2022-10-17T19:29:59.816Z,101926.78
2022-10-17T19:33:01.610Z,101924.78
2022-10-17T19:36:07.834Z,101926.03
2022-10-17T19:39:14.134Z,101925.63
2022-10-17T19:42:16.052Z,101930.09
2022-10-17T19:45:17.878Z,101929.50
2022-10-17T19:48:19.738Z,101921.56
2022-10-17T19:51:24.376Z,101915.88
2022-10-17T19:54:26.345Z,101919.47
2022-10-17T19:57:28.269Z,101922.53
2022-10-17T20:00:30.138Z,101923.12
2022-10-17T20:03:31.959Z,101923.47
2022-10-17T20:06:33.793Z,101926.94
2022-10-17T20:09:35.787Z,101914.13
2022-10-17T20:12:37.759Z,101928.19
2022-10-17T20:15:39.831Z,101929.94
2022-10-17T20:18:41.711Z,101931.31
2022-10-17T20:21:43.784Z,101923.22
2022-10-17T20:24:46.039Z,101924.53
2022-10-17T20:27:47.911Z,101927.66
2022-10-17T20:30:49.759Z,101925.78
2022-10-17T20:33:55.658Z,101923.72
2022-10-17T20:36:57.571Z,101922.44
2022-10-17T20:40:22.788Z,101934.38
2022-10-17T20:43:21.256Z,101933.56
2022-10-17T20:46:35.945Z,101928.16
2022-10-17T20:49:38.502Z,101926.00
2022-10-17T20:52:40.320Z,101928.44
2022-10-17T20:55:42.544Z,101930.19
2022-10-17T20:58:44.321Z,101928.94
2022-10-17T21:01:46.630Z,101928.63
2022-10-17T21:04:49.888Z,101929.22
2022-10-17T21:07:51.747Z,101933.03
2022-10-17T21:10:53.586Z,101929.56
2022-10-17T21:13:56.577Z,101928.91
2022-10-17T21:17:03.756Z,101935.44
2022-10-17T21:20:07.092Z,101933.34
2022-10-17T21:23:08.975Z,101922.41
2022-10-17T21:26:12.736Z,101931.53
2022-10-17T21:29:14.641Z,101931.25
2022-10-17T21:32:31.834Z,101934.06
2022-10-17T21:35:38.323Z,101933.59
2022-10-17T21:38:40.354Z,101928.66
2022-10-17T21:41:42.417Z,101924.13
2022-10-17T21:44:44.452Z,101935.22
2022-10-17T21:48:11.168Z,101926.69
2022-10-17T21:51:09.273Z,101933.38
2022-10-17T21:54:11.329Z,101930.44
2022-10-17T21:57:13.316Z,101929.34
2022-10-17T22:00:15.274Z,101921.59
2022-10-17T22:07:05.356Z,101923.22
2022-10-17T22:10:07.435Z,101927.12
2022-10-17T22:13:09.319Z,101907.91
2022-10-17T22:16:12.230Z,101918.03
2022-10-17T22:19:15.349Z,101919.84
2022-10-17T22:22:17.189Z,101910.41
2022-10-17T22:25:18.986Z,101913.88
2022-10-17T22:28:20.926Z,101923.56
2022-10-17T22:31:23.079Z,101911.75
2022-10-17T22:34:24.972Z,101921.59
2022-10-17T22:37:26.774Z,101919.13
2022-10-17T22:40:28.662Z,101921.44
2022-10-17T22:43:30.608Z,101915.34
2022-10-17T22:46:32.783Z,101919.44
2022-10-17T22:49:34.723Z,101922.06
2022-10-17T22:52:36.788Z,101916.75
2022-10-17T22:55:38.621Z,101901.44
2022-10-17T22:58:40.638Z,101925.41
2022-10-17T23:01:42.511Z,101924.16
2022-10-17T23:04:44.400Z,101924.81
2022-10-17T23:07:46.291Z,101913.31
2022-10-17T23:10:48.153Z,101911.41
2022-10-17T23:13:50.049Z,101904.28
2022-10-17T23:16:51.883Z,101908.13
2022-10-17T23:19:55.569Z,101904.84
2022-10-17T23:22:59.481Z,101900.75
2022-10-17T23:26:05.297Z,101903.38
2022-10-17T23:29:07.260Z,101891.97
2022-10-17T23:32:09.189Z,101902.13
2022-10-17T23:35:11.246Z,101898.25
2022-10-17T23:38:13.057Z,101894.75
2022-10-17T23:41:15.036Z,101885.13
2022-10-17T23:44:16.997Z,101891.75
2022-10-17T23:47:18.946Z,101896.19
2022-10-17T23:50:20.746Z,101887.87
2022-10-17T23:53:23.142Z,101891.72
2022-10-17T23:56:24.966Z,101887.06
2022-10-17T23:59:26.838Z,101877.66
